sensor_id;sensor_type;location;lat;lon;timestamp;temperature;humidity
35796;DHT22;21916;52.428;13.302;2023-11-21T00:00:29;8.80;99.90
35796;DHT22;21916;52.428;13.302;2023-11-21T00:02:55;8.70;99.90
35796;DHT22;21916;52.428;13.302;2023-11-21T00:05:21;8.80;99.90
35796;DHT22;21916;52.428;13.302;2023-11-21T00:07:48;8.80;99.90
35796;DHT22;21916;52.428;13.302;2023-11-21T00:10:14;8.80;99.90
35796;DHT22;21916;52.428;13.302;2023-11-21T00:12:41;8.70;99.90
35796;DHT22;21916;52.428;13.302;2023-11-21T00:15:08;8.70;99.90
35796;DHT22;21916;52.428;13.302;2023-11-21T00:17:37;8.70;99.90
35796;DHT22;21916;52.428;13.302;2023-11-21T00:20:03;8.70;99.90
35796;DHT22;21916;52.428;13.302;2023-11-21T00:22:35;8.80;99.90
35796;DHT22;21916;52.428;13.302;2023-11-21T00:25:01;8.80;99.90
35796;DHT22;21916;52.428;13.302;2023-11-21T00:27:30;8.70;99.90
35796;DHT22;21916;52.428;13.302;2023-11-21T00:29:55;8.70;99.90
35796;DHT22;21916;52.428;13.302;2023-11-21T00:32:21;8.60;99.90
35796;DHT22;21916;52.428;13.302;2023-11-21T00:34:46;8.70;99.90
35796;DHT22;21916;52.428;13.302;2023-11-21T00:37:12;8.60;99.90
35796;DHT22;21916;52.428;13.302;2023-11-21T00:39:38;8.50;99.90
35796;DHT22;21916;52.428;13.302;2023-11-21T00:42:03;8.40;99.90
35796;DHT22;21916;52.428;13.302;2023-11-21T00:44:30;8.50;99.90
35796;DHT22;21916;52.428;13.302;2023-11-21T00:46:56;8.50;99.90
35796;DHT22;21916;52.428;13.302;2023-11-21T00:49:21;8.60;99.90
35796;DHT22;21916;52.428;13.302;2023-11-21T00:51:48;8.40;99.90
35796;DHT22;21916;52.428;13.302;2023-11-21T00:54:15;8.40;99.90
35796;DHT22;21916;52.428;13.302;2023-11-21T00:56:43;8.20;99.90
35796;DHT22;21916;52.428;13.302;2023-11-21T00:59:08;8.20;99.90
35796;DHT22;21916;52.428;13.302;2023-11-21T01:01:34;8.20;99.90
35796;DHT22;21916;52.428;13.302;2023-11-21T01:04:00;8.20;99.90
35796;DHT22;21916;52.428;13.302;2023-11-21T01:06:26;8.30;99.90
35796;DHT22;21916;52.428;13.302;2023-11-21T01:08:51;8.20;99.90
35796;DHT22;21916;52.428;13.302;2023-11-21T01:11:17;8.30;99.90
35796;DHT22;21916;52.428;13.302;2023-11-21T01:13:43;8.20;99.90
35796;DHT22;21916;52.428;13.302;2023-11-21T01:16:10;8.10;99.90
35796;DHT22;21916;52.428;13.302;2023-11-21T01:18:36;8.00;99.90
35796;DHT22;21916;52.428;13.302;2023-11-21T01:21:02;8.00;99.90
35796;DHT22;21916;52.428;13.302;2023-11-21T01:23:28;8.00;99.90
35796;DHT22;21916;52.428;13.302;2023-11-21T01:25:56;7.90;99.90
35796;DHT22;21916;52.428;13.302;2023-11-21T01:28:22;7.90;99.90
35796;DHT22;21916;52.428;13.302;2023-11-21T01:30:48;7.80;99.90
35796;DHT22;21916;52.428;13.302;2023-11-21T01:33:15;7.70;99.90
35796;DHT22;21916;52.428;13.302;2023-11-21T01:35:44;7.70;99.90
35796;DHT22;21916;52.428;13.302;2023-11-21T01:38:11;7.70;99.90
35796;DHT22;21916;52.428;13.302;2023-11-21T01:40:38;7.70;99.90
35796;DHT22;21916;52.428;13.302;2023-11-21T01:43:04;7.70;99.90
35796;DHT22;21916;52.428;13.302;2023-11-21T01:45:30;7.70;99.90
35796;DHT22;21916;52.428;13.302;2023-11-21T01:48:00;7.60;99.90
35796;DHT22;21916;52.428;13.302;2023-11-21T01:50:26;7.50;99.90
35796;DHT22;21916;52.428;13.302;2023-11-21T01:52:53;7.50;99.90
35796;DHT22;21916;52.428;13.302;2023-11-21T01:55:19;7.40;99.90
35796;DHT22;21916;52.428;13.302;2023-11-21T01:57:46;7.40;99.90
35796;DHT22;21916;52.428;13.302;2023-11-21T02:00:13;7.40;99.90
35796;DHT22;21916;52.428;13.302;2023-11-21T02:02:45;7.40;99.90
35796;DHT22;21916;52.428;13.302;2023-11-21T02:05:12;7.40;99.90
35796;DHT22;21916;52.428;13.302;2023-11-21T02:07:39;7.30;99.90
35796;DHT22;21916;52.428;13.302;2023-11-21T02:10:06;7.30;99.90
35796;DHT22;21916;52.428;13.302;2023-11-21T02:12:33;7.30;99.90
35796;DHT22;21916;52.428;13.302;2023-11-21T02:15:03;7.30;99.90
35796;DHT22;21916;52.428;13.302;2023-11-21T02:17:43;7.40;99.90
35796;DHT22;21916;52.428;13.302;2023-11-21T02:20:11;7.40;99.90
35796;DHT22;21916;52.428;13.302;2023-11-21T02:22:42;7.30;99.90
35796;DHT22;21916;52.428;13.302;2023-11-21T02:25:08;7.50;99.90
35796;DHT22;21916;52.428;13.302;2023-11-21T02:27:34;7.40;99.90
35796;DHT22;21916;52.428;13.302;2023-11-21T02:30:00;7.40;99.90
35796;DHT22;21916;52.428;13.302;2023-11-21T02:32:27;7.30;99.90
35796;DHT22;21916;52.428;13.302;2023-11-21T02:34:52;7.40;99.90
35796;DHT22;21916;52.428;13.302;2023-11-21T02:37:21;7.40;99.90
35796;DHT22;21916;52.428;13.302;2023-11-21T02:39:47;7.30;99.90
35796;DHT22;21916;52.428;13.302;2023-11-21T02:42:12;7.30;99.90
35796;DHT22;21916;52.428;13.302;2023-11-21T02:44:38;7.20;99.90
35796;DHT22;21916;52.428;13.302;2023-11-21T02:47:04;7.20;99.90
35796;DHT22;21916;52.428;13.302;2023-11-21T02:49:30;7.30;99.90
35796;DHT22;21916;52.428;13.302;2023-11-21T02:51:56;7.20;99.90
35796;DHT22;21916;52.428;13.302;2023-11-21T02:54:22;7.30;99.90
35796;DHT22;21916;52.428;13.302;2023-11-21T02:56:48;7.30;99.90
35796;DHT22;21916;52.428;13.302;2023-11-21T02:59:15;7.20;99.90
35796;DHT22;21916;52.428;13.302;2023-11-21T03:01:41;7.30;99.90
35796;DHT22;21916;52.428;13.302;2023-11-21T03:04:08;7.30;99.90
35796;DHT22;21916;52.428;13.302;2023-11-21T03:06:33;7.30;99.90
35796;DHT22;21916;52.428;13.302;2023-11-21T03:08:59;7.30;99.90
35796;DHT22;21916;52.428;13.302;2023-11-21T03:11:25;7.20;99.90
35796;DHT22;21916;52.428;13.302;2023-11-21T03:13:51;7.10;99.90
35796;DHT22;21916;52.428;13.302;2023-11-21T03:16:18;7.10;99.90
35796;DHT22;21916;52.428;13.302;2023-11-21T03:18:45;7.00;99.90
35796;DHT22;21916;52.428;13.302;2023-11-21T03:21:12;6.90;99.90
35796;DHT22;21916;52.428;13.302;2023-11-21T03:23:38;6.80;99.90
35796;DHT22;21916;52.428;13.302;2023-11-21T03:26:05;6.80;99.90
35796;DHT22;21916;52.428;13.302;2023-11-21T03:28:34;6.90;99.90
35796;DHT22;21916;52.428;13.302;2023-11-21T03:31:00;7.00;99.90
35796;DHT22;21916;52.428;13.302;2023-11-21T03:33:29;7.00;99.90
35796;DHT22;21916;52.428;13.302;2023-11-21T03:35:54;7.00;99.90
35796;DHT22;21916;52.428;13.302;2023-11-21T03:38:20;7.00;99.90
35796;DHT22;21916;52.428;13.302;2023-11-21T03:40:46;7.10;99.90
35796;DHT22;21916;52.428;13.302;2023-11-21T03:43:13;7.00;99.90
35796;DHT22;21916;52.428;13.302;2023-11-21T03:45:42;7.00;99.90
35796;DHT22;21916;52.428;13.302;2023-11-21T03:48:09;7.20;99.90
35796;DHT22;21916;52.428;13.302;2023-11-21T03:50:37;7.10;99.90
35796;DHT22;21916;52.428;13.302;2023-11-21T03:53:06;7.00;99.90
35796;DHT22;21916;52.428;13.302;2023-11-21T03:55:35;7.00;99.90
35796;DHT22;21916;52.428;13.302;2023-11-21T03:58:03;6.90;99.90
35796;DHT22;21916;52.428;13.302;2023-11-21T04:00:29;6.80;99.90
35796;DHT22;21916;52.428;13.302;2023-11-21T04:02:54;6.80;99.90
35796;DHT22;21916;52.428;13.302;2023-11-21T04:05:21;6.70;99.90
35796;DHT22;21916;52.428;13.302;2023-11-21T04:07:49;6.80;99.90
35796;DHT22;21916;52.428;13.302;2023-11-21T04:10:15;6.80;99.90
35796;DHT22;21916;52.428;13.302;2023-11-21T04:12:41;6.60;99.90
35796;DHT22;21916;52.428;13.302;2023-11-21T04:15:07;6.70;99.90
35796;DHT22;21916;52.428;13.302;2023-11-21T04:17:34;6.60;99.90
35796;DHT22;21916;52.428;13.302;2023-11-21T04:20:00;6.60;99.90
35796;DHT22;21916;52.428;13.302;2023-11-21T04:22:26;6.50;99.90
35796;DHT22;21916;52.428;13.302;2023-11-21T04:24:52;6.40;99.90
35796;DHT22;21916;52.428;13.302;2023-11-21T04:27:18;6.30;99.90
35796;DHT22;21916;52.428;13.302;2023-11-21T04:29:44;6.50;99.90
35796;DHT22;21916;52.428;13.302;2023-11-21T04:32:10;6.30;99.90
35796;DHT22;21916;52.428;13.302;2023-11-21T04:34:36;6.30;99.90
35796;DHT22;21916;52.428;13.302;2023-11-21T04:37:03;6.30;99.90
35796;DHT22;21916;52.428;13.302;2023-11-21T04:39:29;6.50;99.90
35796;DHT22;21916;52.428;13.302;2023-11-21T04:41:55;6.50;99.90
35796;DHT22;21916;52.428;13.302;2023-11-21T04:44:20;6.50;99.90
35796;DHT22;21916;52.428;13.302;2023-11-21T04:46:46;6.40;99.90
35796;DHT22;21916;52.428;13.302;2023-11-21T04:49:12;6.40;99.90
35796;DHT22;21916;52.428;13.302;2023-11-21T04:51:38;6.40;99.90
35796;DHT22;21916;52.428;13.302;2023-11-21T04:54:04;6.40;99.90
35796;DHT22;21916;52.428;13.302;2023-11-21T04:56:32;6.30;99.90
35796;DHT22;21916;52.428;13.302;2023-11-21T04:58:58;6.40;99.90
35796;DHT22;21916;52.428;13.302;2023-11-21T05:01:23;6.40;99.90
35796;DHT22;21916;52.428;13.302;2023-11-21T05:03:49;6.40;99.90
35796;DHT22;21916;52.428;13.302;2023-11-21T05:06:15;6.30;99.90
35796;DHT22;21916;52.428;13.302;2023-11-21T05:08:42;6.50;99.90
35796;DHT22;21916;52.428;13.302;2023-11-21T05:11:08;6.40;99.90
35796;DHT22;21916;52.428;13.302;2023-11-21T05:13:36;6.20;99.90
35796;DHT22;21916;52.428;13.302;2023-11-21T05:16:02;6.20;99.90
35796;DHT22;21916;52.428;13.302;2023-11-21T05:18:31;6.30;99.90
35796;DHT22;21916;52.428;13.302;2023-11-21T05:20:57;6.40;99.90
35796;DHT22;21916;52.428;13.302;2023-11-21T05:23:23;6.50;99.90
35796;DHT22;21916;52.428;13.302;2023-11-21T05:25:49;6.40;99.90
35796;DHT22;21916;52.428;13.302;2023-11-21T05:28:15;6.30;99.90
35796;DHT22;21916;52.428;13.302;2023-11-21T05:30:40;6.50;99.90
35796;DHT22;21916;52.428;13.302;2023-11-21T05:33:07;6.50;99.90
35796;DHT22;21916;52.428;13.302;2023-11-21T05:35:32;6.60;99.90
35796;DHT22;21916;52.428;13.302;2023-11-21T05:37:58;6.50;99.90
35796;DHT22;21916;52.428;13.302;2023-11-21T05:40:24;6.40;99.90
35796;DHT22;21916;52.428;13.302;2023-11-21T05:42:51;6.40;99.90
35796;DHT22;21916;52.428;13.302;2023-11-21T05:45:17;6.30;99.90
35796;DHT22;21916;52.428;13.302;2023-11-21T05:47:45;6.20;99.90
35796;DHT22;21916;52.428;13.302;2023-11-21T05:50:13;6.10;99.90
35796;DHT22;21916;52.428;13.302;2023-11-21T05:52:43;6.10;99.90
35796;DHT22;21916;52.428;13.302;2023-11-21T05:55:11;6.00;99.90
35796;DHT22;21916;52.428;13.302;2023-11-21T05:57:38;5.90;99.90
35796;DHT22;21916;52.428;13.302;2023-11-21T06:00:13;5.90;99.90
35796;DHT22;21916;52.428;13.302;2023-11-21T06:02:52;5.90;99.90
35796;DHT22;21916;52.428;13.302;2023-11-21T06:05:20;5.80;99.90
35796;DHT22;21916;52.428;13.302;2023-11-21T06:07:49;5.80;99.90
35796;DHT22;21916;52.428;13.302;2023-11-21T06:10:15;5.90;99.90
35796;DHT22;21916;52.428;13.302;2023-11-21T06:12:43;5.90;99.90
35796;DHT22;21916;52.428;13.302;2023-11-21T06:15:10;6.00;99.90
35796;DHT22;21916;52.428;13.302;2023-11-21T06:17:41;6.00;99.90
35796;DHT22;21916;52.428;13.302;2023-11-21T06:20:11;6.00;99.90
35796;DHT22;21916;52.428;13.302;2023-11-21T06:22:42;5.90;99.90
35796;DHT22;21916;52.428;13.302;2023-11-21T06:25:09;5.90;99.90
35796;DHT22;21916;52.428;13.302;2023-11-21T06:27:40;5.80;99.90
35796;DHT22;21916;52.428;13.302;2023-11-21T06:30:07;5.70;99.90
35796;DHT22;21916;52.428;13.302;2023-11-21T06:32:35;5.80;99.90
35796;DHT22;21916;52.428;13.302;2023-11-21T06:35:02;5.80;99.90
35796;DHT22;21916;52.428;13.302;2023-11-21T06:37:30;5.90;99.90
35796;DHT22;21916;52.428;13.302;2023-11-21T06:39:56;5.80;99.90
35796;DHT22;21916;52.428;13.302;2023-11-21T06:42:27;5.80;99.90
35796;DHT22;21916;52.428;13.302;2023-11-21T06:44:53;5.80;99.90
35796;DHT22;21916;52.428;13.302;2023-11-21T06:47:20;5.80;99.90
35796;DHT22;21916;52.428;13.302;2023-11-21T06:49:47;5.80;99.90
35796;DHT22;21916;52.428;13.302;2023-11-21T06:52:23;5.90;99.90
35796;DHT22;21916;52.428;13.302;2023-11-21T06:54:58;5.90;99.90
35796;DHT22;21916;52.428;13.302;2023-11-21T06:57:24;5.90;99.90
35796;DHT22;21916;52.428;13.302;2023-11-21T06:59:49;5.80;99.90
35796;DHT22;21916;52.428;13.302;2023-11-21T07:02:18;5.70;99.90
35796;DHT22;21916;52.428;13.302;2023-11-21T07:04:46;5.70;99.90
35796;DHT22;21916;52.428;13.302;2023-11-21T07:07:12;5.70;99.90
35796;DHT22;21916;52.428;13.302;2023-11-21T07:09:38;5.70;99.90
35796;DHT22;21916;52.428;13.302;2023-11-21T07:12:04;5.70;99.90
35796;DHT22;21916;52.428;13.302;2023-11-21T07:14:36;5.80;99.90
35796;DHT22;21916;52.428;13.302;2023-11-21T07:17:02;5.70;99.90
35796;DHT22;21916;52.428;13.302;2023-11-21T07:19:28;5.70;99.90
35796;DHT22;21916;52.428;13.302;2023-11-21T07:21:56;5.70;99.90
35796;DHT22;21916;52.428;13.302;2023-11-21T07:24:22;5.70;99.90
35796;DHT22;21916;52.428;13.302;2023-11-21T07:26:49;5.60;99.90
35796;DHT22;21916;52.428;13.302;2023-11-21T07:29:14;5.80;99.90
35796;DHT22;21916;52.428;13.302;2023-11-21T07:31:42;5.80;99.90
35796;DHT22;21916;52.428;13.302;2023-11-21T07:34:08;5.90;99.90
35796;DHT22;21916;52.428;13.302;2023-11-21T07:36:34;5.80;99.90
35796;DHT22;21916;52.428;13.302;2023-11-21T07:39:00;5.70;99.90
35796;DHT22;21916;52.428;13.302;2023-11-21T07:41:27;5.70;99.90
35796;DHT22;21916;52.428;13.302;2023-11-21T07:43:55;5.70;99.90
35796;DHT22;21916;52.428;13.302;2023-11-21T07:46:21;5.70;99.90
35796;DHT22;21916;52.428;13.302;2023-11-21T07:48:48;5.70;99.90
35796;DHT22;21916;52.428;13.302;2023-11-21T07:51:14;5.80;99.90
35796;DHT22;21916;52.428;13.302;2023-11-21T07:53:40;5.70;99.90
35796;DHT22;21916;52.428;13.302;2023-11-21T07:56:07;5.90;99.90
35796;DHT22;21916;52.428;13.302;2023-11-21T07:58:34;5.80;99.90
35796;DHT22;21916;52.428;13.302;2023-11-21T08:01:01;5.90;99.90
35796;DHT22;21916;52.428;13.302;2023-11-21T08:03:27;5.80;99.90
35796;DHT22;21916;52.428;13.302;2023-11-21T08:05:54;5.90;99.90
35796;DHT22;21916;52.428;13.302;2023-11-21T08:08:20;5.80;99.90
35796;DHT22;21916;52.428;13.302;2023-11-21T08:10:46;5.90;99.90
35796;DHT22;21916;52.428;13.302;2023-11-21T08:13:14;5.90;99.90
35796;DHT22;21916;52.428;13.302;2023-11-21T08:15:41;5.80;99.90
35796;DHT22;21916;52.428;13.302;2023-11-21T08:18:11;5.80;99.90
35796;DHT22;21916;52.428;13.302;2023-11-21T08:20:38;5.70;99.90
35796;DHT22;21916;52.428;13.302;2023-11-21T08:23:05;5.80;99.90
35796;DHT22;21916;52.428;13.302;2023-11-21T08:25:32;5.70;99.90
35796;DHT22;21916;52.428;13.302;2023-11-21T08:28:00;5.70;99.90
35796;DHT22;21916;52.428;13.302;2023-11-21T08:30:26;5.70;99.90
35796;DHT22;21916;52.428;13.302;2023-11-21T08:32:54;5.80;99.90
35796;DHT22;21916;52.428;13.302;2023-11-21T08:35:24;5.90;99.90
35796;DHT22;21916;52.428;13.302;2023-11-21T08:37:53;6.00;99.90
35796;DHT22;21916;52.428;13.302;2023-11-21T08:40:19;6.10;99.90
35796;DHT22;21916;52.428;13.302;2023-11-21T08:42:47;6.10;99.90
35796;DHT22;21916;52.428;13.302;2023-11-21T08:45:14;6.00;99.90
35796;DHT22;21916;52.428;13.302;2023-11-21T08:47:40;6.00;99.90
35796;DHT22;21916;52.428;13.302;2023-11-21T08:50:06;6.00;99.90
35796;DHT22;21916;52.428;13.302;2023-11-21T08:52:36;5.90;99.90
35796;DHT22;21916;52.428;13.302;2023-11-21T08:55:03;5.80;99.90
35796;DHT22;21916;52.428;13.302;2023-11-21T08:57:36;5.90;99.90
35796;DHT22;21916;52.428;13.302;2023-11-21T09:00:04;6.00;99.90
35796;DHT22;21916;52.428;13.302;2023-11-21T09:02:36;5.80;99.90
35796;DHT22;21916;52.428;13.302;2023-11-21T09:05:04;5.70;99.90
35796;DHT22;21916;52.428;13.302;2023-11-21T09:07:29;5.80;99.90
35796;DHT22;21916;52.428;13.302;2023-11-21T09:09:56;5.70;99.90
35796;DHT22;21916;52.428;13.302;2023-11-21T09:12:22;5.70;99.90
35796;DHT22;21916;52.428;13.302;2023-11-21T09:14:50;5.80;99.90
35796;DHT22;21916;52.428;13.302;2023-11-21T09:17:16;5.90;99.90
35796;DHT22;21916;52.428;13.302;2023-11-21T09:19:42;5.90;99.90
35796;DHT22;21916;52.428;13.302;2023-11-21T09:22:16;6.00;99.90
35796;DHT22;21916;52.428;13.302;2023-11-21T09:24:42;5.80;99.90
35796;DHT22;21916;52.428;13.302;2023-11-21T09:27:08;5.90;99.90
35796;DHT22;21916;52.428;13.302;2023-11-21T09:29:35;5.90;99.90
35796;DHT22;21916;52.428;13.302;2023-11-21T09:32:06;5.90;99.90
35796;DHT22;21916;52.428;13.302;2023-11-21T09:34:34;5.90;99.90
35796;DHT22;21916;52.428;13.302;2023-11-21T09:37:04;6.00;99.90
35796;DHT22;21916;52.428;13.302;2023-11-21T09:39:32;6.10;99.90
35796;DHT22;21916;52.428;13.302;2023-11-21T09:42:12;6.10;99.90
35796;DHT22;21916;52.428;13.302;2023-11-21T09:44:48;6.10;99.90
35796;DHT22;21916;52.428;13.302;2023-11-21T09:47:17;6.00;99.90
35796;DHT22;21916;52.428;13.302;2023-11-21T09:49:47;5.90;99.90
35796;DHT22;21916;52.428;13.302;2023-11-21T09:52:22;5.80;99.90
35796;DHT22;21916;52.428;13.302;2023-11-21T09:54:52;5.70;99.90
35796;DHT22;21916;52.428;13.302;2023-11-21T09:57:23;5.90;99.90
35796;DHT22;21916;52.428;13.302;2023-11-21T09:59:53;5.90;99.90
35796;DHT22;21916;52.428;13.302;2023-11-21T10:02:27;5.90;99.90
35796;DHT22;21916;52.428;13.302;2023-11-21T10:04:54;5.90;99.90
35796;DHT22;21916;52.428;13.302;2023-11-21T10:07:21;5.90;99.90
35796;DHT22;21916;52.428;13.302;2023-11-21T10:09:47;6.00;99.90
35796;DHT22;21916;52.428;13.302;2023-11-21T10:12:15;5.80;99.90
35796;DHT22;21916;52.428;13.302;2023-11-21T10:14:42;5.90;99.90
35796;DHT22;21916;52.428;13.302;2023-11-21T10:17:10;5.70;99.90
35796;DHT22;21916;52.428;13.302;2023-11-21T10:19:39;5.60;99.90
35796;DHT22;21916;52.428;13.302;2023-11-21T10:22:05;5.60;99.90
35796;DHT22;21916;52.428;13.302;2023-11-21T10:24:33;5.60;99.90
35796;DHT22;21916;52.428;13.302;2023-11-21T10:26:59;5.70;99.90
35796;DHT22;21916;52.428;13.302;2023-11-21T10:29:29;5.70;99.90
35796;DHT22;21916;52.428;13.302;2023-11-21T10:31:56;5.80;99.90
35796;DHT22;21916;52.428;13.302;2023-11-21T10:34:24;5.70;99.90
35796;DHT22;21916;52.428;13.302;2023-11-21T10:36:50;5.80;99.90
35796;DHT22;21916;52.428;13.302;2023-11-21T10:39:21;5.90;99.90
35796;DHT22;21916;52.428;13.302;2023-11-21T10:41:49;6.00;99.90
35796;DHT22;21916;52.428;13.302;2023-11-21T10:44:17;6.10;99.90
35796;DHT22;21916;52.428;13.302;2023-11-21T10:46:54;6.00;99.90
35796;DHT22;21916;52.428;13.302;2023-11-21T10:49:27;6.00;99.90
35796;DHT22;21916;52.428;13.302;2023-11-21T10:51:53;5.90;99.90
35796;DHT22;21916;52.428;13.302;2023-11-21T10:54:20;5.90;99.90
35796;DHT22;21916;52.428;13.302;2023-11-21T10:56:51;6.00;99.90
35796;DHT22;21916;52.428;13.302;2023-11-21T10:59:18;6.20;99.90
35796;DHT22;21916;52.428;13.302;2023-11-21T11:01:47;6.10;99.90
35796;DHT22;21916;52.428;13.302;2023-11-21T11:04:19;6.00;99.90
35796;DHT22;21916;52.428;13.302;2023-11-21T11:06:46;5.90;99.90
35796;DHT22;21916;52.428;13.302;2023-11-21T11:09:13;5.80;99.90
35796;DHT22;21916;52.428;13.302;2023-11-21T11:11:40;5.80;99.90
35796;DHT22;21916;52.428;13.302;2023-11-21T11:14:10;5.90;99.90
35796;DHT22;21916;52.428;13.302;2023-11-21T11:16:39;5.90;99.90
35796;DHT22;21916;52.428;13.302;2023-11-21T11:19:11;5.90;99.90
35796;DHT22;21916;52.428;13.302;2023-11-21T11:22:03;5.90;99.90
35796;DHT22;21916;52.428;13.302;2023-11-21T11:24:55;5.80;99.90
35796;DHT22;21916;52.428;13.302;2023-11-21T11:27:44;5.80;99.90
35796;DHT22;21916;52.428;13.302;2023-11-21T11:33:04;5.70;99.90
35796;DHT22;21916;52.428;13.302;2023-11-21T11:36:43;5.80;99.90
35796;DHT22;21916;52.428;13.302;2023-11-21T11:38:37;5.90;99.90
35796;DHT22;21916;52.428;13.302;2023-11-21T11:41:04;5.70;99.90
35796;DHT22;21916;52.428;13.302;2023-11-21T11:43:30;5.80;99.90
35796;DHT22;21916;52.428;13.302;2023-11-21T11:45:59;5.70;99.90
35796;DHT22;21916;52.428;13.302;2023-11-21T11:48:29;5.90;99.90
35796;DHT22;21916;52.428;13.302;2023-11-21T11:51:12;5.60;99.90
35796;DHT22;21916;52.428;13.302;2023-11-21T11:53:44;5.60;99.90
35796;DHT22;21916;52.428;13.302;2023-11-21T11:56:30;5.60;99.90
35796;DHT22;21916;52.428;13.302;2023-11-21T11:58:59;5.70;99.90
35796;DHT22;21916;52.428;13.302;2023-11-21T12:01:26;5.50;99.90
35796;DHT22;21916;52.428;13.302;2023-11-21T12:06:41;5.40;99.90
35796;DHT22;21916;52.428;13.302;2023-11-21T12:09:17;5.40;99.90
35796;DHT22;21916;52.428;13.302;2023-11-21T12:11:44;5.40;99.90
35796;DHT22;21916;52.428;13.302;2023-11-21T12:14:10;5.30;99.90
35796;DHT22;21916;52.428;13.302;2023-11-21T12:16:36;5.40;99.90
35796;DHT22;21916;52.428;13.302;2023-11-21T12:19:03;5.20;99.90
35796;DHT22;21916;52.428;13.302;2023-11-21T12:21:28;5.10;99.90
35796;DHT22;21916;52.428;13.302;2023-11-21T12:23:55;5.30;99.90
35796;DHT22;21916;52.428;13.302;2023-11-21T12:26:24;5.40;99.90
35796;DHT22;21916;52.428;13.302;2023-11-21T12:28:53;5.30;99.90
35796;DHT22;21916;52.428;13.302;2023-11-21T12:31:25;5.40;99.90
35796;DHT22;21916;52.428;13.302;2023-11-21T12:33:52;5.30;99.90
35796;DHT22;21916;52.428;13.302;2023-11-21T12:36:18;5.40;99.90
35796;DHT22;21916;52.428;13.302;2023-11-21T12:38:44;5.40;99.90
35796;DHT22;21916;52.428;13.302;2023-11-21T12:41:11;5.10;99.90
35796;DHT22;21916;52.428;13.302;2023-11-21T12:43:37;5.10;99.90
35796;DHT22;21916;52.428;13.302;2023-11-21T12:46:09;5.10;99.90
35796;DHT22;21916;52.428;13.302;2023-11-21T12:48:42;5.00;99.90
35796;DHT22;21916;52.428;13.302;2023-11-21T12:51:08;5.00;99.90
35796;DHT22;21916;52.428;13.302;2023-11-21T12:53:35;5.00;99.90
35796;DHT22;21916;52.428;13.302;2023-11-21T12:56:10;5.10;99.90
35796;DHT22;21916;52.428;13.302;2023-11-21T12:58:37;5.10;99.90
35796;DHT22;21916;52.428;13.302;2023-11-21T13:01:06;5.10;99.90
35796;DHT22;21916;52.428;13.302;2023-11-21T13:03:38;5.10;99.90
35796;DHT22;21916;52.428;13.302;2023-11-21T13:06:05;5.10;99.90
35796;DHT22;21916;52.428;13.302;2023-11-21T13:08:33;5.20;99.90
35796;DHT22;21916;52.428;13.302;2023-11-21T13:10:59;5.00;99.90
35796;DHT22;21916;52.428;13.302;2023-11-21T13:13:29;5.10;99.90
35796;DHT22;21916;52.428;13.302;2023-11-21T13:15:56;5.20;99.90
35796;DHT22;21916;52.428;13.302;2023-11-21T13:18:23;5.40;99.90
35796;DHT22;21916;52.428;13.302;2023-11-21T13:20:50;5.60;99.90
35796;DHT22;21916;52.428;13.302;2023-11-21T13:23:16;5.60;99.90
35796;DHT22;21916;52.428;13.302;2023-11-21T13:25:46;5.70;99.90
35796;DHT22;21916;52.428;13.302;2023-11-21T13:28:13;5.70;99.90
35796;DHT22;21916;52.428;13.302;2023-11-21T13:30:41;5.50;99.90
35796;DHT22;21916;52.428;13.302;2023-11-21T13:33:08;5.40;99.90
35796;DHT22;21916;52.428;13.302;2023-11-21T13:35:35;5.30;99.90
35796;DHT22;21916;52.428;13.302;2023-11-21T13:38:14;5.20;99.90
35796;DHT22;21916;52.428;13.302;2023-11-21T13:40:47;5.10;99.90
35796;DHT22;21916;52.428;13.302;2023-11-21T13:43:17;5.10;99.90
35796;DHT22;21916;52.428;13.302;2023-11-21T13:45:45;5.10;99.90
35796;DHT22;21916;52.428;13.302;2023-11-21T13:48:12;5.00;99.90
35796;DHT22;21916;52.428;13.302;2023-11-21T13:50:48;4.90;99.90
35796;DHT22;21916;52.428;13.302;2023-11-21T13:53:32;4.90;99.90
35796;DHT22;21916;52.428;13.302;2023-11-21T13:56:02;4.80;99.90
35796;DHT22;21916;52.428;13.302;2023-11-21T13:58:27;4.80;99.90
35796;DHT22;21916;52.428;13.302;2023-11-21T14:01:13;4.90;99.90
35796;DHT22;21916;52.428;13.302;2023-11-21T14:03:50;5.10;99.90
35796;DHT22;21916;52.428;13.302;2023-11-21T14:06:25;5.10;99.90
35796;DHT22;21916;52.428;13.302;2023-11-21T14:08:58;5.10;99.90
35796;DHT22;21916;52.428;13.302;2023-11-21T14:11:27;4.90;99.90
35796;DHT22;21916;52.428;13.302;2023-11-21T14:13:53;4.80;99.90
35796;DHT22;21916;52.428;13.302;2023-11-21T14:16:19;4.80;99.90
35796;DHT22;21916;52.428;13.302;2023-11-21T14:18:47;4.70;99.90
35796;DHT22;21916;52.428;13.302;2023-11-21T14:21:33;4.60;99.90
35796;DHT22;21916;52.428;13.302;2023-11-21T14:23:58;4.50;99.90
35796;DHT22;21916;52.428;13.302;2023-11-21T14:26:26;4.50;99.90
35796;DHT22;21916;52.428;13.302;2023-11-21T14:28:53;4.40;99.90
35796;DHT22;21916;52.428;13.302;2023-11-21T14:31:20;4.40;99.90
35796;DHT22;21916;52.428;13.302;2023-11-21T14:33:51;4.30;99.90
35796;DHT22;21916;52.428;13.302;2023-11-21T14:36:17;4.20;99.90
35796;DHT22;21916;52.428;13.302;2023-11-21T14:38:44;4.00;99.90
35796;DHT22;21916;52.428;13.302;2023-11-21T14:41:19;4.10;99.90
35796;DHT22;21916;52.428;13.302;2023-11-21T14:43:45;4.20;99.90
35796;DHT22;21916;52.428;13.302;2023-11-21T14:46:15;4.20;99.90
35796;DHT22;21916;52.428;13.302;2023-11-21T14:48:44;4.30;99.90
35796;DHT22;21916;52.428;13.302;2023-11-21T14:51:13;4.30;99.90
35796;DHT22;21916;52.428;13.302;2023-11-21T14:53:54;4.30;99.90
35796;DHT22;21916;52.428;13.302;2023-11-21T14:56:23;4.20;99.90
35796;DHT22;21916;52.428;13.302;2023-11-21T14:58:53;4.20;99.90
35796;DHT22;21916;52.428;13.302;2023-11-21T15:01:20;4.10;99.90
35796;DHT22;21916;52.428;13.302;2023-11-21T15:04:01;4.10;99.90
35796;DHT22;21916;52.428;13.302;2023-11-21T15:06:27;4.10;99.90
35796;DHT22;21916;52.428;13.302;2023-11-21T15:08:57;4.00;99.90
35796;DHT22;21916;52.428;13.302;2023-11-21T15:11:43;4.10;99.90
35796;DHT22;21916;52.428;13.302;2023-11-21T15:14:09;4.00;99.90
35796;DHT22;21916;52.428;13.302;2023-11-21T15:16:36;4.20;99.90
35796;DHT22;21916;52.428;13.302;2023-11-21T15:19:07;4.10;99.90
35796;DHT22;21916;52.428;13.302;2023-11-21T15:21:36;4.00;99.90
35796;DHT22;21916;52.428;13.302;2023-11-21T15:24:02;3.90;99.90
35796;DHT22;21916;52.428;13.302;2023-11-21T15:26:28;3.80;99.90
35796;DHT22;21916;52.428;13.302;2023-11-21T15:28:54;3.80;99.90
35796;DHT22;21916;52.428;13.302;2023-11-21T15:31:21;4.00;99.90
35796;DHT22;21916;52.428;13.302;2023-11-21T15:33:51;4.00;99.90
35796;DHT22;21916;52.428;13.302;2023-11-21T15:36:19;3.80;99.90
35796;DHT22;21916;52.428;13.302;2023-11-21T15:38:45;3.90;99.90
35796;DHT22;21916;52.428;13.302;2023-11-21T15:41:10;3.90;99.90